createdAt,value
2022-07-31T00:00:20.402Z,55.20
2022-07-31T00:02:22.161Z,55.53
2022-07-31T00:04:24.148Z,55.96
2022-07-31T00:06:26.021Z,55.65
2022-07-31T00:08:27.805Z,55.66
2022-07-31T00:10:29.795Z,56.12
2022-07-31T00:14:33.044Z,55.99
2022-07-31T00:16:35.020Z,56.35
2022-07-31T00:18:36.794Z,56.59
2022-07-31T00:20:38.692Z,56.37
2022-07-31T00:22:44.655Z,56.26
2022-07-31T00:24:46.317Z,56.33
2022-07-31T00:26:48.014Z,56.10
2022-07-31T00:28:54.633Z,56.50
2022-07-31T00:30:56.392Z,56.47
2022-07-31T00:32:58.154Z,56.58
2022-07-31T00:34:59.876Z,57.18
2022-07-31T00:37:01.787Z,56.95
2022-07-31T00:39:03.864Z,57.38
2022-07-31T00:41:05.619Z,57.37
2022-07-31T00:43:07.380Z,57.78
2022-07-31T00:45:10.260Z,57.50
2022-07-31T00:47:16.873Z,57.83
2022-07-31T00:49:19.127Z,57.64
2022-07-31T00:51:20.894Z,57.52
2022-07-31T00:53:22.598Z,57.40
2022-07-31T00:55:24.499Z,57.48
2022-07-31T00:57:26.193Z,57.55
2022-07-31T00:59:28.543Z,57.13
2022-07-31T01:01:30.973Z,57.46
2022-07-31T01:03:32.839Z,57.29
2022-07-31T01:05:34.663Z,57.41
2022-07-31T01:07:36.493Z,57.44
2022-07-31T01:09:38.372Z,57.27
2022-07-31T01:12:07.283Z,57.35
2022-07-31T01:14:09.501Z,57.74
2022-07-31T01:16:12.656Z,57.73
2022-07-31T01:18:16.712Z,57.72
2022-07-31T01:20:18.716Z,57.86
2022-07-31T01:22:35.394Z,58.10
2022-07-31T01:24:48.943Z,58.02
2022-07-31T01:27:13.694Z,58.08
2022-07-31T01:29:53.903Z,58.43
2022-07-31T01:32:07.591Z,58.68
2022-07-31T01:34:14.114Z,58.74
2022-07-31T01:36:23.018Z,58.75
2022-07-31T01:38:35.543Z,58.78
2022-07-31T01:40:50.208Z,58.93
2022-07-31T01:43:00.394Z,58.62
2022-07-31T01:45:06.315Z,59.13
2022-07-31T01:47:10.391Z,59.05
2022-07-31T01:49:14.739Z,59.21
2022-07-31T01:51:18.175Z,59.31
2022-07-31T01:53:25.125Z,59.20
2022-07-31T01:55:29.221Z,59.04
2022-07-31T01:57:32.829Z,59.23
2022-07-31T01:59:37.196Z,58.84
2022-07-31T02:01:45.565Z,58.95
2022-07-31T02:03:51.313Z,58.91
2022-07-31T02:05:55.004Z,58.95
2022-07-31T02:07:57.365Z,58.98
2022-07-31T02:09:59.538Z,59.15
2022-07-31T02:12:01.991Z,59.40
2022-07-31T02:14:05.617Z,59.79
2022-07-31T02:16:08.418Z,59.91
2022-07-31T02:18:11.279Z,60.42
2022-07-31T02:20:15.463Z,60.40
2022-07-31T02:22:17.571Z,60.31
2022-07-31T02:24:19.342Z,60.48
2022-07-31T02:26:22.590Z,60.27
2022-07-31T02:28:24.849Z,60.16
2022-07-31T02:30:38.834Z,60.26
2022-07-31T02:32:44.850Z,61.10
2022-07-31T02:34:47.654Z,61.57
2022-07-31T02:36:51.096Z,61.92
2022-07-31T02:38:55.119Z,62.31
2022-07-31T02:41:02.038Z,63.17
2022-07-31T02:43:04.375Z,62.44
2022-07-31T02:45:10.609Z,62.70
2022-07-31T02:47:12.982Z,63.06
2022-07-31T02:49:15.718Z,63.59
2022-07-31T02:51:18.503Z,63.43
2022-07-31T02:53:21.543Z,63.26
2022-07-31T02:55:23.493Z,63.61
2022-07-31T02:57:25.247Z,63.81
2022-07-31T02:59:27.167Z,63.66
2022-07-31T03:01:28.890Z,63.61
2022-07-31T03:03:31.051Z,63.53
2022-07-31T03:05:32.752Z,63.92
2022-07-31T03:07:34.986Z,63.87
2022-07-31T03:09:36.700Z,64.24
2022-07-31T03:11:38.428Z,64.11
2022-07-31T03:13:41.640Z,64.04
2022-07-31T03:15:50.750Z,64.30
2022-07-31T03:17:54.461Z,64.34
2022-07-31T03:19:56.412Z,64.34
2022-07-31T03:21:59.618Z,64.46
2022-07-31T03:24:03.128Z,64.28
2022-07-31T03:26:06.114Z,64.36
2022-07-31T03:28:09.216Z,64.29
2022-07-31T03:30:18.602Z,64.23
2022-07-31T03:32:20.798Z,64.23
2022-07-31T03:34:22.506Z,64.34
2022-07-31T03:36:27.503Z,64.32
2022-07-31T03:38:42.331Z,64.01
2022-07-31T03:40:45.884Z,63.97
2022-07-31T03:42:50.981Z,63.98
2022-07-31T03:44:53.608Z,64.07
2022-07-31T03:46:55.696Z,64.11
2022-07-31T03:48:57.734Z,63.99
2022-07-31T03:50:59.892Z,64.04
2022-07-31T03:53:01.846Z,64.38
2022-07-31T03:55:03.747Z,64.36
2022-07-31T03:57:07.721Z,63.97
2022-07-31T03:59:15.081Z,64.17
2022-07-31T04:01:19.000Z,64.63
2022-07-31T04:03:22.525Z,64.68
2022-07-31T04:05:24.645Z,64.92
2022-07-31T04:07:26.547Z,64.78
2022-07-31T04:09:29.366Z,64.55
2022-07-31T04:11:31.100Z,64.59
2022-07-31T04:13:32.853Z,64.62
2022-07-31T04:15:34.618Z,64.60
2022-07-31T04:17:36.438Z,64.30
2022-07-31T04:19:38.449Z,64.76
2022-07-31T04:21:40.418Z,64.83
2022-07-31T04:23:42.163Z,64.68
2022-07-31T04:25:51.338Z,64.28
2022-07-31T04:27:53.112Z,64.64
2022-07-31T04:29:55.880Z,64.81
2022-07-31T04:31:58.052Z,64.94
2022-07-31T04:33:59.948Z,64.58
2022-07-31T04:36:01.830Z,64.41
2022-07-31T04:38:03.838Z,64.54
2022-07-31T04:40:06.224Z,64.41
2022-07-31T04:42:11.571Z,64.33
2022-07-31T04:44:13.832Z,64.22
2022-07-31T04:46:17.133Z,64.13
2022-07-31T04:48:19.858Z,64.24
2022-07-31T04:50:21.831Z,64.03
2022-07-31T04:52:23.671Z,64.47
2022-07-31T04:54:26.118Z,64.31
2022-07-31T04:56:34.049Z,64.18
2022-07-31T04:58:36.124Z,64.44
2022-07-31T05:00:38.047Z,64.53
2022-07-31T05:02:41.192Z,64.54
2022-07-31T05:04:43.185Z,64.65
2022-07-31T05:06:51.182Z,64.54
2022-07-31T05:08:53.009Z,64.44
2022-07-31T05:11:13.337Z,64.38
2022-07-31T05:13:16.033Z,64.51
2022-07-31T05:15:19.063Z,64.78
2022-07-31T05:17:21.123Z,65.16
2022-07-31T05:19:23.322Z,65.48
2022-07-31T05:21:28.621Z,65.15
2022-07-31T05:23:30.684Z,65.07
2022-07-31T05:25:32.658Z,64.64
2022-07-31T05:27:36.137Z,64.99
2022-07-31T05:29:41.098Z,64.72
2022-07-31T05:31:59.333Z,64.78
2022-07-31T05:34:02.407Z,64.56
2022-07-31T05:36:04.913Z,64.62
2022-07-31T05:38:06.656Z,64.44
2022-07-31T05:40:13.847Z,64.59
2022-07-31T05:42:15.532Z,64.35
2022-07-31T05:44:17.337Z,64.41
2022-07-31T05:46:19.299Z,64.43
2022-07-31T05:48:21.509Z,64.65
2022-07-31T05:50:23.391Z,64.68
2022-07-31T05:52:25.096Z,64.61
2022-07-31T05:54:26.962Z,64.60
2022-07-31T05:56:28.736Z,64.50
2022-07-31T05:58:30.471Z,64.43
2022-07-31T06:00:32.700Z,64.49
2022-07-31T06:02:35.351Z,64.61
2022-07-31T06:04:37.107Z,64.32
2022-07-31T06:06:38.819Z,64.44
2022-07-31T06:08:40.534Z,64.57
2022-07-31T06:10:42.285Z,64.28
2022-07-31T06:12:44.083Z,64.63
2022-07-31T06:14:46.177Z,64.31
2022-07-31T06:16:49.776Z,64.23
2022-07-31T06:18:52.482Z,64.01
2022-07-31T06:20:54.283Z,63.94
2022-07-31T06:22:56.383Z,63.88
2022-07-31T06:24:58.150Z,63.77
2022-07-31T06:27:01.347Z,63.66
2022-07-31T06:29:03.594Z,63.59
2022-07-31T06:31:05.261Z,63.46
2022-07-31T06:33:08.395Z,63.42
2022-07-31T06:35:10.840Z,63.35
2022-07-31T06:37:12.630Z,63.49
2022-07-31T06:39:15.422Z,63.28
2022-07-31T06:41:40.102Z,63.53
2022-07-31T06:43:41.887Z,63.30
2022-07-31T06:45:51.160Z,63.37
2022-07-31T06:47:53.585Z,63.21
2022-07-31T06:49:55.535Z,63.38
2022-07-31T06:51:57.252Z,63.42
2022-07-31T06:54:03.341Z,63.47
2022-07-31T06:56:05.049Z,63.23
2022-07-31T06:58:06.740Z,63.36
2022-07-31T07:00:19.949Z,63.38
2022-07-31T07:02:22.641Z,63.31
2022-07-31T07:04:24.368Z,63.25
2022-07-31T07:06:46.039Z,63.02
2022-07-31T07:08:48.029Z,63.35
2022-07-31T07:10:49.768Z,63.09
2022-07-31T07:12:51.695Z,63.38
2022-07-31T07:14:55.832Z,63.46
2022-07-31T07:16:57.573Z,63.11
2022-07-31T07:18:59.401Z,62.73
2022-07-31T07:21:01.114Z,62.63
2022-07-31T07:23:03.394Z,62.35
2022-07-31T07:25:05.409Z,61.97
2022-07-31T07:27:07.206Z,62.14
2022-07-31T07:29:14.813Z,62.09
2022-07-31T07:31:16.569Z,61.85
2022-07-31T07:33:41.418Z,61.90
2022-07-31T07:35:40.200Z,61.99
2022-07-31T07:37:42.029Z,61.60
2022-07-31T07:39:45.134Z,61.48
2022-07-31T07:41:46.818Z,61.35
2022-07-31T07:43:51.560Z,61.13
2022-07-31T07:45:53.599Z,61.17
2022-07-31T07:48:06.372Z,61.47
2022-07-31T07:50:10.127Z,61.33
2022-07-31T07:52:12.242Z,61.11
2022-07-31T07:54:15.334Z,61.05
2022-07-31T07:56:17.456Z,61.17
2022-07-31T07:58:19.185Z,61.05
2022-07-31T08:00:21.230Z,61.35
2022-07-31T08:02:22.955Z,61.02
2022-07-31T08:04:24.675Z,61.40
2022-07-31T08:06:26.383Z,61.01
2022-07-31T08:08:28.236Z,60.99
2022-07-31T08:10:30.343Z,61.08
2022-07-31T08:12:32.458Z,60.95
2022-07-31T08:14:34.191Z,61.05
2022-07-31T08:16:35.993Z,60.44
2022-07-31T08:18:37.847Z,60.46
2022-07-31T08:20:41.040Z,59.77
2022-07-31T08:22:42.774Z,59.73
2022-07-31T08:24:44.820Z,59.52
2022-07-31T08:27:10.674Z,59.89
2022-07-31T08:29:14.777Z,59.50
2022-07-31T08:31:16.657Z,59.43
2022-07-31T08:33:18.453Z,59.64
2022-07-31T08:35:20.867Z,59.62
2022-07-31T08:38:01.210Z,59.45
2022-07-31T08:39:44.814Z,59.45
2022-07-31T08:41:46.553Z,59.14
2022-07-31T08:44:00.237Z,59.36
2022-07-31T08:46:05.986Z,59.44
2022-07-31T08:48:09.597Z,59.36
2022-07-31T08:50:14.189Z,59.01
2022-07-31T08:52:25.030Z,58.98
2022-07-31T08:54:28.532Z,58.91
2022-07-31T08:56:30.492Z,59.21
2022-07-31T08:58:35.986Z,59.40
2022-07-31T09:00:43.213Z,58.86
2022-07-31T09:02:45.398Z,59.01
2022-07-31T09:04:52.326Z,59.09
2022-07-31T09:06:54.828Z,59.26
2022-07-31T09:08:57.355Z,59.05
2022-07-31T09:11:07.480Z,58.92
2022-07-31T09:13:17.990Z,58.86
2022-07-31T09:15:30.030Z,58.57
2022-07-31T09:17:36.422Z,58.59
2022-07-31T09:19:53.654Z,58.70
2022-07-31T09:21:56.414Z,58.72
2022-07-31T09:23:58.098Z,58.95
2022-07-31T09:26:02.705Z,59.31
2022-07-31T09:28:06.454Z,59.34
2022-07-31T09:30:09.382Z,59.44
2022-07-31T09:32:14.381Z,58.96
2022-07-31T09:34:26.934Z,58.80
2022-07-31T09:36:33.048Z,58.65
2022-07-31T09:38:37.576Z,58.91
2022-07-31T09:40:56.810Z,58.66
2022-07-31T09:42:58.952Z,59.11
2022-07-31T09:45:16.858Z,58.89
2022-07-31T09:47:32.390Z,58.81
2022-07-31T09:49:35.457Z,58.74
2022-07-31T09:51:40.887Z,58.84
2022-07-31T09:53:51.979Z,58.78
2022-07-31T09:55:56.009Z,58.88
2022-07-31T09:57:59.885Z,58.58
2022-07-31T10:00:02.466Z,58.52
2022-07-31T10:02:05.507Z,58.51
2022-07-31T10:04:07.621Z,59.29
2022-07-31T10:06:16.454Z,58.72
2022-07-31T10:08:21.226Z,58.65
2022-07-31T10:10:24.294Z,58.61
2022-07-31T10:12:29.868Z,58.38
2022-07-31T10:14:35.613Z,58.47
2022-07-31T10:16:41.408Z,58.00
2022-07-31T10:18:49.709Z,57.77
2022-07-31T10:20:56.732Z,57.67
2022-07-31T10:23:30.435Z,57.73
2022-07-31T10:25:35.675Z,57.40
2022-07-31T10:27:39.434Z,57.38
2022-07-31T10:29:41.890Z,57.28
2022-07-31T10:32:43.302Z,57.15
2022-07-31T10:34:45.953Z,57.16
2022-07-31T10:36:50.466Z,56.85
2022-07-31T10:38:58.775Z,56.84
2022-07-31T10:41:15.723Z,56.86
2022-07-31T10:43:44.005Z,56.75
2022-07-31T10:45:50.111Z,56.47
2022-07-31T10:47:58.278Z,56.40
2022-07-31T10:50:00.145Z,56.20
2022-07-31T10:52:01.847Z,56.06
2022-07-31T10:54:11.572Z,56.21
2022-07-31T10:56:13.979Z,56.55
2022-07-31T10:58:19.867Z,56.34
2022-07-31T11:00:29.554Z,56.29
2022-07-31T11:02:34.516Z,56.53
2022-07-31T11:04:37.373Z,56.60
2022-07-31T11:06:40.723Z,56.68
2022-07-31T11:08:42.416Z,56.28
2022-07-31T11:10:50.627Z,55.76
2022-07-31T11:13:08.886Z,55.94
2022-07-31T11:15:24.919Z,56.15
2022-07-31T11:18:21.015Z,55.81
2022-07-31T11:19:56.898Z,56.03
2022-07-31T11:22:31.733Z,55.85
2022-07-31T11:24:31.730Z,55.64
2022-07-31T11:26:41.696Z,55.82
2022-07-31T11:28:44.870Z,56.45
2022-07-31T11:30:52.287Z,56.66
2022-07-31T11:32:54.318Z,56.90
2022-07-31T11:34:57.169Z,57.27
2022-07-31T11:36:58.983Z,58.15
2022-07-31T11:39:00.809Z,58.03
2022-07-31T11:41:06.718Z,58.06
2022-07-31T11:43:25.810Z,57.97
2022-07-31T11:45:27.875Z,58.06
2022-07-31T11:48:12.324Z,57.85
2022-07-31T11:50:08.061Z,57.22
2022-07-31T11:52:31.111Z,56.45
2022-07-31T11:54:39.133Z,56.28
2022-07-31T11:56:40.805Z,55.82
2022-07-31T11:58:48.504Z,55.73
2022-07-31T12:00:59.484Z,55.46
2022-07-31T12:03:01.242Z,55.68
2022-07-31T12:05:04.311Z,55.71
2022-07-31T12:07:10.132Z,54.97
2022-07-31T12:10:02.656Z,55.04
2022-07-31T12:11:40.458Z,54.57
2022-07-31T12:13:45.711Z,54.14
2022-07-31T12:16:07.630Z,53.68
2022-07-31T12:18:09.353Z,53.79
2022-07-31T12:20:11.666Z,53.68
2022-07-31T12:22:17.762Z,53.84
2022-07-31T12:24:20.675Z,53.92
2022-07-31T12:26:27.067Z,54.11
2022-07-31T12:28:28.766Z,54.26
2022-07-31T12:30:30.481Z,54.36
2022-07-31T12:32:32.145Z,54.84
2022-07-31T12:34:41.820Z,55.27
2022-07-31T12:36:43.602Z,55.65
2022-07-31T12:38:48.866Z,55.64
2022-07-31T12:40:51.009Z,55.69
2022-07-31T12:42:52.874Z,55.50
2022-07-31T12:44:56.803Z,55.57
2022-07-31T12:46:58.547Z,55.55
2022-07-31T12:49:00.273Z,55.15
2022-07-31T12:51:03.356Z,54.87
2022-07-31T12:53:05.137Z,55.21
2022-07-31T12:55:07.107Z,55.22
2022-07-31T12:57:11.849Z,54.54
2022-07-31T12:59:17.725Z,54.21
2022-07-31T13:01:19.450Z,54.22
2022-07-31T13:03:21.476Z,54.31
2022-07-31T13:05:24.268Z,53.93
2022-07-31T13:07:26.774Z,53.45
2022-07-31T13:09:28.700Z,53.05
2022-07-31T13:11:46.373Z,53.19
2022-07-31T13:13:50.861Z,52.95
2022-07-31T13:15:52.661Z,53.01
2022-07-31T13:17:54.323Z,53.09
2022-07-31T13:19:56.200Z,52.83
2022-07-31T13:21:57.900Z,52.42
2022-07-31T13:23:59.668Z,52.24
2022-07-31T13:26:01.380Z,52.05
2022-07-31T13:28:03.517Z,52.33
2022-07-31T13:30:05.941Z,52.56
2022-07-31T13:32:08.968Z,52.28
2022-07-31T13:34:10.768Z,52.47
2022-07-31T13:36:12.465Z,52.18
2022-07-31T13:38:14.816Z,51.82
2022-07-31T13:40:16.538Z,51.84
2022-07-31T13:42:18.288Z,51.68
2022-07-31T13:44:20.270Z,51.26
2022-07-31T13:46:23.082Z,50.74
2022-07-31T13:48:24.898Z,50.31
2022-07-31T13:50:26.557Z,50.46
2022-07-31T13:52:28.276Z,50.53
2022-07-31T13:54:30.188Z,50.09
2022-07-31T13:56:39.032Z,50.02
2022-07-31T13:58:44.653Z,49.52
2022-07-31T14:00:46.894Z,49.41
2022-07-31T14:02:50.152Z,48.75
2022-07-31T14:04:51.932Z,48.56
2022-07-31T14:06:54.457Z,48.17
2022-07-31T14:08:56.234Z,47.72
2022-07-31T14:10:58.178Z,48.17
2022-07-31T14:12:59.843Z,47.46
2022-07-31T14:15:04.335Z,46.94
2022-07-31T14:17:06.100Z,46.31
2022-07-31T14:19:22.983Z,45.76
2022-07-31T14:21:24.644Z,45.29
2022-07-31T14:23:34.190Z,45.04
2022-07-31T14:25:39.054Z,45.58
2022-07-31T14:27:40.807Z,45.90
2022-07-31T14:29:42.601Z,45.72
2022-07-31T14:31:44.286Z,45.73
2022-07-31T14:33:45.992Z,46.28
2022-07-31T14:35:54.672Z,45.87
2022-07-31T14:37:57.891Z,45.13
2022-07-31T14:40:01.654Z,45.44
2022-07-31T14:42:03.812Z,45.57
2022-07-31T14:44:05.656Z,45.27
2022-07-31T14:46:07.382Z,44.95
2022-07-31T14:48:09.120Z,44.42
2022-07-31T14:50:13.681Z,43.54
2022-07-31T14:52:19.218Z,44.00
2022-07-31T14:54:20.908Z,44.30
2022-07-31T14:56:45.001Z,44.16
2022-07-31T14:58:57.899Z,43.76
2022-07-31T15:01:00.587Z,44.25
2022-07-31T15:03:02.275Z,44.55
2022-07-31T15:06:41.755Z,44.26
2022-07-31T15:07:46.566Z,43.10
2022-07-31T15:09:48.106Z,43.05
2022-07-31T15:11:59.767Z,42.66
2022-07-31T15:14:03.115Z,43.14
2022-07-31T15:16:05.163Z,42.83
2022-07-31T15:18:06.924Z,43.68
2022-07-31T15:20:09.005Z,43.30
2022-07-31T15:22:17.094Z,43.90
2022-07-31T15:24:18.966Z,43.65
2022-07-31T15:26:20.606Z,43.58
2022-07-31T15:28:22.303Z,43.98
2022-07-31T15:30:24.182Z,43.98
2022-07-31T15:32:26.658Z,44.45
2022-07-31T15:34:28.626Z,44.66
2022-07-31T15:36:30.407Z,44.65
2022-07-31T15:38:32.750Z,44.71
2022-07-31T15:40:34.912Z,44.90
2022-07-31T15:42:40.770Z,44.67
2022-07-31T15:44:42.777Z,44.91
2022-07-31T15:46:44.437Z,44.59
2022-07-31T15:48:46.187Z,44.75
2022-07-31T15:50:47.992Z,44.66
2022-07-31T15:52:50.231Z,44.51
2022-07-31T15:54:52.905Z,44.46
2022-07-31T15:56:54.811Z,43.92
2022-07-31T15:58:56.585Z,43.66
2022-07-31T16:00:58.386Z,43.28
2022-07-31T16:03:00.112Z,43.96
2022-07-31T16:05:12.066Z,43.61
2022-07-31T16:08:33.001Z,43.22
2022-07-31T16:10:03.441Z,43.77
2022-07-31T16:12:07.613Z,42.92
2022-07-31T16:14:10.638Z,42.82
2022-07-31T16:16:12.319Z,43.27
2022-07-31T16:18:18.419Z,43.53
2022-07-31T16:20:26.720Z,43.33
2022-07-31T16:22:28.888Z,42.74
2022-07-31T16:24:30.646Z,43.17
2022-07-31T16:26:33.526Z,43.56
2022-07-31T16:28:35.239Z,43.67
2022-07-31T16:30:36.935Z,43.71
2022-07-31T16:32:39.022Z,43.50
2022-07-31T16:34:40.994Z,44.09
2022-07-31T16:36:44.198Z,43.89
2022-07-31T16:38:59.475Z,44.09
2022-07-31T16:41:07.607Z,44.23
2022-07-31T16:43:50.290Z,44.24
2022-07-31T16:45:31.111Z,44.42
2022-07-31T16:47:45.637Z,44.58
2022-07-31T16:49:53.251Z,44.69
2022-07-31T16:51:55.002Z,44.50
2022-07-31T16:54:10.637Z,45.03
2022-07-31T16:56:17.183Z,44.52
2022-07-31T16:58:18.932Z,44.77
2022-07-31T17:00:26.485Z,44.60
2022-07-31T17:02:28.349Z,44.85
2022-07-31T17:04:30.144Z,45.01
2022-07-31T17:06:36.413Z,45.27
2022-07-31T17:08:39.232Z,45.30
2022-07-31T17:10:40.950Z,45.48
2022-07-31T17:12:42.740Z,45.57
2022-07-31T17:14:44.492Z,45.93
2022-07-31T17:16:48.559Z,45.64
2022-07-31T17:18:52.361Z,45.98
2022-07-31T17:20:56.881Z,45.23
2022-07-31T17:22:58.990Z,45.56
2022-07-31T17:25:01.695Z,45.81
2022-07-31T17:27:05.546Z,45.41
2022-07-31T17:29:15.384Z,45.60
2022-07-31T17:31:18.638Z,45.64
2022-07-31T17:33:20.433Z,46.19
2022-07-31T17:35:42.146Z,45.82
2022-07-31T17:37:43.836Z,45.68
2022-07-31T17:39:46.790Z,45.70
2022-07-31T17:41:48.489Z,45.75
2022-07-31T17:43:53.110Z,45.88
2022-07-31T17:47:07.130Z,46.31
2022-07-31T17:48:17.064Z,46.04
2022-07-31T17:50:18.729Z,46.08
2022-07-31T17:52:23.609Z,46.49
2022-07-31T17:54:25.313Z,46.42
2022-07-31T17:56:29.245Z,46.05
2022-07-31T17:58:31.364Z,45.41
2022-07-31T18:00:33.228Z,45.77
2022-07-31T18:02:35.007Z,45.71
2022-07-31T18:04:37.637Z,45.74
2022-07-31T18:06:39.379Z,45.47
2022-07-31T18:08:41.096Z,45.69
2022-07-31T18:10:53.965Z,45.98
2022-07-31T18:12:57.435Z,45.82
2022-07-31T18:14:59.886Z,45.82
2022-07-31T18:17:02.187Z,46.06
2022-07-31T18:19:09.690Z,46.02
2022-07-31T18:21:12.113Z,45.83
2022-07-31T18:23:14.290Z,46.27
2022-07-31T18:25:16.644Z,45.57
2022-07-31T18:27:18.358Z,45.42
2022-07-31T18:29:20.715Z,44.96
2022-07-31T18:31:34.091Z,45.18
2022-07-31T18:33:37.739Z,44.83
2022-07-31T18:35:39.669Z,44.84
2022-07-31T18:37:41.600Z,45.12
2022-07-31T18:39:48.204Z,44.93
2022-07-31T18:41:51.347Z,44.95
2022-07-31T18:43:53.687Z,44.90
2022-07-31T18:45:55.738Z,44.88
2022-07-31T18:47:58.020Z,45.36
2022-07-31T18:51:00.749Z,45.20
2022-07-31T18:52:22.695Z,45.18
2022-07-31T18:54:25.120Z,44.83
2022-07-31T18:56:27.519Z,44.72
2022-07-31T18:58:29.693Z,44.66
2022-07-31T19:00:32.374Z,44.49
2022-07-31T19:02:34.414Z,44.30
2022-07-31T19:04:36.865Z,43.90
2022-07-31T19:06:38.806Z,43.77
2022-07-31T19:08:40.932Z,43.93
2022-07-31T19:10:43.028Z,44.10
2022-07-31T19:12:45.013Z,43.83
2022-07-31T19:14:46.979Z,44.12
2022-07-31T19:16:48.825Z,43.84
2022-07-31T19:18:51.777Z,44.75
2022-07-31T19:20:58.973Z,45.92
2022-07-31T19:23:16.243Z,46.44
2022-07-31T19:25:18.117Z,47.18
2022-07-31T19:27:20.253Z,47.28
2022-07-31T19:29:23.690Z,47.89
2022-07-31T19:31:25.673Z,48.10
2022-07-31T19:33:27.932Z,48.41
2022-07-31T19:35:29.872Z,48.45
2022-07-31T19:37:31.808Z,48.92
2022-07-31T19:39:33.726Z,48.87
2022-07-31T19:41:35.810Z,48.86
2022-07-31T19:43:39.266Z,49.10
2022-07-31T19:46:02.588Z,49.09
2022-07-31T19:48:03.424Z,49.50
2022-07-31T19:50:05.821Z,49.57
2022-07-31T19:52:08.188Z,49.57
2022-07-31T19:54:10.469Z,49.75
2022-07-31T19:56:18.340Z,50.02
2022-07-31T19:58:22.290Z,50.11
2022-07-31T20:00:24.143Z,50.32
2022-07-31T20:02:26.206Z,50.52
2022-07-31T20:04:27.953Z,50.57
2022-07-31T20:06:29.722Z,50.84
2022-07-31T20:08:33.342Z,51.01
2022-07-31T20:10:35.348Z,51.14
2022-07-31T20:12:39.616Z,51.34
2022-07-31T20:14:41.619Z,51.34
2022-07-31T20:16:43.367Z,51.46
2022-07-31T20:18:47.178Z,51.67
2022-07-31T20:20:48.971Z,51.77
2022-07-31T20:22:50.783Z,51.88
2022-07-31T20:24:53.133Z,52.05
2022-07-31T20:26:54.809Z,52.57
2022-07-31T20:28:56.557Z,52.62
2022-07-31T20:30:58.214Z,52.59
2022-07-31T20:32:59.962Z,52.58
2022-07-31T20:35:01.656Z,52.74
2022-07-31T20:37:03.374Z,52.74
2022-07-31T20:39:12.252Z,52.81
2022-07-31T20:41:14.032Z,52.99
2022-07-31T20:43:16.705Z,53.30
2022-07-31T20:45:18.440Z,52.65
2022-07-31T20:47:24.417Z,52.72
2022-07-31T20:49:34.962Z,52.90
2022-07-31T20:51:37.548Z,52.83
2022-07-31T20:53:39.271Z,52.99
2022-07-31T20:55:47.210Z,53.06
2022-07-31T20:57:49.006Z,53.18
2022-07-31T20:59:50.698Z,53.34
2022-07-31T21:01:52.459Z,53.26
2022-07-31T21:03:55.075Z,53.67
2022-07-31T21:05:56.940Z,53.79
2022-07-31T21:07:58.863Z,53.85
2022-07-31T21:10:00.616Z,53.94
2022-07-31T21:12:02.760Z,53.95
2022-07-31T21:14:04.812Z,53.88
2022-07-31T21:16:06.555Z,53.89
2022-07-31T21:18:08.308Z,53.99
2022-07-31T21:20:10.981Z,54.11
2022-07-31T21:22:12.716Z,53.94
2022-07-31T21:24:14.601Z,53.69
2022-07-31T21:26:17.243Z,53.70
2022-07-31T21:28:19.231Z,53.54
2022-07-31T21:30:21.144Z,53.38
2022-07-31T21:32:24.080Z,53.31
2022-07-31T21:34:26.051Z,53.37
2022-07-31T21:36:28.723Z,53.54
2022-07-31T21:38:30.601Z,53.42
2022-07-31T21:40:37.413Z,53.56
2022-07-31T21:42:43.413Z,53.79
2022-07-31T21:44:46.364Z,53.88
2022-07-31T21:46:51.800Z,54.08
2022-07-31T21:48:54.733Z,54.06
2022-07-31T21:50:58.971Z,54.02
2022-07-31T21:53:01.423Z,54.22
2022-07-31T21:55:05.419Z,54.36
2022-07-31T21:57:07.259Z,54.24
2022-07-31T21:59:17.787Z,54.49
2022-07-31T22:01:19.609Z,54.49
2022-07-31T22:03:22.155Z,54.55
2022-07-31T22:05:42.447Z,54.61
2022-07-31T22:07:46.669Z,54.62
2022-07-31T22:09:48.929Z,54.76
2022-07-31T22:12:05.163Z,54.61
2022-07-31T22:14:06.972Z,54.64
2022-07-31T22:16:08.835Z,54.80
2022-07-31T22:18:10.851Z,54.83
2022-07-31T22:20:13.444Z,55.20
2022-07-31T22:22:15.728Z,55.12
2022-07-31T22:24:18.699Z,55.07
2022-07-31T22:26:21.176Z,55.15
2022-07-31T22:28:27.821Z,55.36
2022-07-31T22:30:30.402Z,55.32
2022-07-31T22:32:32.561Z,55.02
2022-07-31T22:34:37.766Z,55.07
2022-07-31T22:36:40.065Z,55.25
2022-07-31T22:38:47.145Z,55.13
2022-07-31T22:40:49.015Z,55.36
2022-07-31T22:42:57.446Z,55.44
2022-07-31T22:45:04.672Z,54.96
2022-07-31T22:47:07.105Z,54.88
2022-07-31T22:49:19.984Z,54.73
2022-07-31T22:51:22.102Z,54.58
2022-07-31T22:55:26.625Z,54.94
2022-07-31T22:57:28.598Z,54.68
2022-07-31T22:59:31.776Z,54.68
2022-07-31T23:01:34.233Z,54.93
2022-07-31T23:03:37.406Z,55.16
2022-07-31T23:06:02.759Z,55.36
2022-07-31T23:08:03.151Z,55.26
2022-07-31T23:10:08.091Z,55.51
2022-07-31T23:12:10.382Z,55.57
2022-07-31T23:14:13.701Z,55.58
2022-07-31T23:16:15.783Z,55.49
2022-07-31T23:18:17.650Z,55.46
2022-07-31T23:20:19.612Z,55.39
2022-07-31T23:22:33.798Z,55.37
2022-07-31T23:24:36.184Z,55.41
2022-07-31T23:26:38.252Z,55.54
2022-07-31T23:28:40.378Z,55.35
2022-07-31T23:30:42.400Z,55.67
2022-07-31T23:32:44.463Z,55.65
2022-07-31T23:34:46.429Z,55.61
2022-07-31T23:36:48.344Z,55.71
2022-07-31T23:38:50.577Z,55.66
2022-07-31T23:40:56.467Z,55.74
2022-07-31T23:42:58.464Z,55.46
2022-07-31T23:45:00.488Z,55.67
2022-07-31T23:47:02.770Z,55.81
2022-07-31T23:49:11.247Z,55.43
2022-07-31T23:51:13.252Z,55.80
2022-07-31T23:53:15.553Z,56.01
2022-07-31T23:55:17.504Z,56.01
2022-07-31T23:57:20.851Z,55.95
2022-07-31T23:59:22.837Z,56.02
